• Join FlightAware (Why Join?)
  • Login
  • US Flag 
05:22AM EDT


 

Airport Tracker/Info


-or-


 

Live Flight TrackerFlight Track Log ✈ WBR2622 ✈ 19-May-2013 ✈ KSTL - KBRL

Flight Track Log - Related Links

Times and Time Zones

All times are in EDT time to prevent confusion due to time zone crossing. See the WBR2622 flight status page for this flight to view local times or setup timezone preferences in your user account.

Time Position Orientation Groundspeed Altitude Reporting Facility
EDT Latitude Longitude Course Direction KTS MPH feet Rate Location/Type
12:25PM 38.7500 -90.3000 339° North 139 160 1,300  Level Gateway (St. Louis) TRACON
12:26PM 38.7833 -90.3000 360° North 134 154 1,700 540 Climbing Gateway (St. Louis) TRACON
12:27PM 38.8167 -90.3167 339° North 130 150 2,400 480 Climbing Gateway (St. Louis) TRACON
12:28PM 38.8500 -90.3333 339° North 143 165 2,700 240 Climbing Gateway (St. Louis) TRACON
12:29PM 38.9000 -90.3333 360° North 161 185 2,900 420 Climbing Gateway (St. Louis) TRACON
12:30PM 38.9743 -90.4205 339° North  Level FlightAware Approximate
12:30PM 38.9333 -90.3667 322° Northwest 140 161 3,600  Level Gateway (St. Louis) TRACON
12:31PM 38.9667 -90.3833 339° North 135 155 4,200 600 Climbing Gateway (St. Louis) TRACON
12:32PM 38.9969 -90.4069 329° Northwest 137 158 4,900 660 Climbing Kansas City Center
12:33PM 39.0314 -90.4444 320° Northwest 135 155 5,700 660 Climbing Kansas City Center
12:34PM 39.0614 -90.4722 324° Northwest 135 155 6,300 540 Climbing Kansas City Center
12:35PM 39.0911 -90.4964 328° Northwest 129 148 6,900 300 Climbing Kansas City Center
12:36PM 39.1219 -90.5283 321° Northwest 137 158 7,000  Climbing Kansas City Center
12:37PM 39.1544 -90.5697 315° West 157 181 7,000 420 Level Kansas City Center
12:38PM 39.1897 -90.6156 315° West 153 176 7,900 480 Climbing Kansas City Center
12:39PM 39.2206 -90.6489 320° Northwest 146 168 8,000  Climbing Kansas City Center
12:40PM 39.2558 -90.6878 320° Northwest 160 184 8,000  Level Kansas City Center
12:41PM 39.2878 -90.7336 312° West 168 193 8,000  Level Kansas City Center
12:42PM 39.3239 -90.7750 318° Northwest 173 199 8,000  Level Kansas City Center
12:43PM 39.3611 -90.8178 318° Northwest 177 204 8,000  Level Kansas City Center
12:44PM 39.4097 -90.8661 322° Northwest 182 209 8,000  Level Kansas City Center
12:45PM 39.4642 -90.8775 351° North 190 219 8,000 -60 Level Kansas City Center
12:46PM 39.5181 -90.8956 346° North 196 226 7,900 -60 Descending Kansas City Center
12:47PM 39.5689 -90.9142 344° North 194 223 7,900  Level Kansas City Center
12:48PM 39.6211 -90.9350 343° North 195 224 7,900  Level Kansas City Center
12:49PM 39.6731 -90.9528 345° North 194 223 7,900  Level Kansas City Center
12:50PM 39.7350 -90.9575 357° North 188 216 7,900  Level Kansas City Center
12:52PM 39.7881 -90.9658 353° North 188 216 7,900  Level Kansas City Center
12:53PM 39.8386 -90.9736 353° North 194 223 7,900  Level Kansas City Center
12:54PM 39.8922 -90.9814 354° North 196 226 7,900  Level Kansas City Center
12:55PM 39.9583 -90.9911 354° North 199 229 7,900 -60 Level Kansas City Center
12:56PM 40.0117 -91.0006 352° North 196 226 7,800 -360 Descending Kansas City Center
12:57PM 40.0675 -91.0144 349° North 202 232 7,200 -540 Descending Kansas City Center
12:58PM 40.1247 -91.0322 347° North 210 242 6,700 -660 Descending Kansas City Center
12:59PM 40.1814 -91.0447 350° North 209 241 5,900 -960 Descending Kansas City Center
01:00PM 40.2483 -91.0556 353° North 203 234 4,800 -1,020 Descending Kansas City Center
01:01PM 40.3053 -91.0664 352° North 211 243 3,900 -480 Descending Kansas City Center
01:02PM 40.3614 -91.0817 348° North 208 239 3,900 -120 Level Kansas City Center
01:02PM 40.3800 -91.0892 343° North 202 232 3,800 -240 Descending Chicago Center
01:03PM 40.4244 -91.1069 343° North 179 206 3,600 -360 Descending Chicago Center
01:04PM 40.4828 -91.1247 347° North 193 222 3,100 -360 Descending Chicago Center
01:05PM 40.5331 -91.1239 North 194 223 2,900 -120 Descending Chicago Center
01:06PM 40.5783 -91.1233 North 173 199 2,900  Level Chicago Center
01:07PM 40.6247 -91.1247 359° North 168 193 2,900 -300 Level Chicago Center
01:08PM 40.6811 -91.1239 North 169 194 2,400 -540 Descending Chicago Center
01:09PM 40.7289 -91.1236 360° North 168 193 1,900 -300 Descending Chicago Center
01:10PM 40.7708 -91.1289 355° North 168 193 1,800 -120 Descending Chicago Center
01:12PM 40.7667 -91.1167 North  Level FlightAware Approximate
01:19PM 40.7832 -91.1255 North  Level Estimated
01:20PM 40.7832 -91.1255 North  Level Estimated